Time;durP1;ratioP1;P1;durP2;ratioP2;P2;SDS_P1;SDS_P2;PMS_P1;PMS_P2;Temp;Humidity;BMP_temperature;BMP_pressure;BME280_temperature;BME280_humidity;BME280_pressure;Samples;Min_cycle;Max_cycle;Signal;HPM_P1;HPM_P2
2024/04/08 00:00:52;;;;;;;5.30;1.20;;;17.90;99.90;;;;;;5061860;28;20591;-77
2024/04/08 00:03:18;;;;;;;3.60;1.10;;;17.80;99.90;;;;;;5068281;28;20231;-78
2024/04/08 00:05:43;;;;;;;4.13;1.10;;;17.80;99.90;;;;;;5080491;28;20257;-78
2024/04/08 00:08:10;;;;;;;6.43;1.10;;;17.70;99.90;;;;;;5069186;28;21100;-78
2024/04/08 00:10:36;;;;;;;2.53;0.90;;;17.60;99.90;;;;;;5069533;28;20176;-78
2024/04/08 00:13:02;;;;;;;3.17;1.63;;;17.50;99.90;;;;;;5070066;28;20633;-78
2024/04/08 00:15:28;;;;;;;3.00;1.00;;;17.40;99.90;;;;;;5070142;28;20585;-78
2024/04/08 00:17:53;;;;;;;3.50;1.10;;;17.30;99.90;;;;;;5069735;28;20673;-78
2024/04/08 00:20:19;;;;;;;4.13;1.40;;;17.20;99.90;;;;;;5043345;28;20168;-77
2024/04/08 00:22:50;;;;;;;2.60;1.00;;;17.10;99.90;;;;;;5069926;28;20283;-77
2024/04/08 00:25:16;;;;;;;5.23;1.43;;;17.10;99.90;;;;;;5070413;28;20632;-77
2024/04/08 00:27:41;;;;;;;2.00;0.80;;;17.00;99.90;;;;;;5070412;28;21227;-77
2024/04/08 00:30:07;;;;;;;2.87;1.00;;;16.90;99.90;;;;;;5069113;28;20207;-77
2024/04/08 00:32:33;;;;;;;2.50;1.20;;;16.80;99.90;;;;;;5070613;28;20287;-77
2024/04/08 00:34:58;;;;;;;3.30;1.10;;;16.80;99.90;;;;;;5081079;28;20598;-77
2024/04/08 00:37:24;;;;;;;5.80;1.40;;;16.70;99.90;;;;;;5069979;28;20180;-77
2024/04/08 00:39:50;;;;;;;3.80;2.30;;;16.70;99.90;;;;;;5069663;28;20211;-77
2024/04/08 00:42:16;;;;;;;4.20;1.70;;;16.60;99.90;;;;;;5070082;28;20199;-77
2024/04/08 00:44:42;;;;;;;8.63;3.40;;;16.60;99.90;;;;;;5069766;28;20204;-77
2024/04/08 00:47:10;;;;;;;3.67;1.10;;;16.60;99.90;;;;;;5068592;28;20225;-77
2024/04/08 00:49:36;;;;;;;5.37;1.87;;;16.50;99.90;;;;;;5069740;28;20582;-78
2024/04/08 00:52:03;;;;;;;5.10;1.87;;;16.50;99.90;;;;;;5068676;28;20593;-78
2024/04/08 00:54:31;;;;;;;4.70;1.50;;;16.50;99.90;;;;;;5071062;28;20624;-78
2024/04/08 00:56:59;;;;;;;3.57;1.50;;;16.40;99.90;;;;;;5074773;28;20582;-76
2024/04/08 00:59:27;;;;;;;2.80;1.53;;;16.40;99.90;;;;;;5055949;28;20597;-77
2024/04/08 01:01:53;;;;;;;3.30;1.63;;;16.40;99.90;;;;;;5056282;28;20668;-76
2024/04/08 01:04:19;;;;;;;5.27;1.90;;;16.40;99.90;;;;;;5071086;28;20638;-76
2024/04/08 01:06:45;;;;;;;3.50;2.03;;;16.30;99.90;;;;;;5073295;28;20677;-77
2024/04/08 01:09:11;;;;;;;2.67;1.57;;;16.30;99.90;;;;;;5066153;28;20187;-77
2024/04/08 01:11:37;;;;;;;3.37;1.17;;;16.30;99.90;;;;;;5055569;28;20180;-77
2024/04/08 01:14:03;;;;;;;4.40;1.43;;;16.30;99.90;;;;;;5073155;28;20705;-77
2024/04/08 01:16:29;;;;;;;3.23;1.50;;;16.20;99.90;;;;;;5070582;28;20789;-77
2024/04/08 01:18:55;;;;;;;6.93;2.13;;;16.20;99.90;;;;;;5073097;28;20698;-77
2024/04/08 01:21:21;;;;;;;3.80;1.90;;;16.20;99.90;;;;;;5055910;28;20614;-77
2024/04/08 01:23:46;;;;;;;5.23;1.60;;;16.20;99.90;;;;;;5073200;28;20290;-77
2024/04/08 01:26:12;;;;;;;3.30;1.20;;;16.10;99.90;;;;;;5055305;28;20187;-77
2024/04/08 01:28:39;;;;;;;3.27;1.30;;;16.10;99.90;;;;;;5073568;28;20172;-77
2024/04/08 01:31:05;;;;;;;4.80;1.37;;;16.10;99.90;;;;;;5055369;28;20191;-77
2024/04/08 01:33:31;;;;;;;3.47;1.60;;;16.00;99.90;;;;;;5053756;28;20661;-77
2024/04/08 01:36:04;;;;;;;4.03;1.77;;;16.00;99.90;;;;;;5072682;28;20631;-76
2024/04/08 01:38:30;;;;;;;5.80;1.70;;;15.90;99.90;;;;;;5052401;28;20649;-77
2024/04/08 01:40:56;;;;;;;7.43;3.43;;;15.90;99.90;;;;;;5054877;28;20595;-77
2024/04/08 01:43:23;;;;;;;4.50;1.60;;;15.80;99.90;;;;;;5071830;28;20622;-78
2024/04/08 01:45:50;;;;;;;5.40;2.03;;;15.80;99.90;;;;;;5039263;28;20597;-78
2024/04/08 01:48:17;;;;;;;3.70;1.73;;;15.70;99.90;;;;;;5073140;28;20586;-77
2024/04/08 01:50:44;;;;;;;4.30;2.07;;;15.70;99.90;;;;;;5077186;28;20672;-77
2024/04/08 01:53:10;;;;;;;3.70;1.63;;;15.60;99.90;;;;;;5077089;28;20606;-77
2024/04/08 01:55:35;;;;;;;3.60;1.50;;;15.60;99.90;;;;;;5078869;28;20614;-77
2024/04/08 01:58:01;;;;;;;4.07;1.80;;;15.60;99.90;;;;;;5077115;28;20582;-76
2024/04/08 02:00:27;;;;;;;3.80;2.10;;;15.60;99.90;;;;;;5062790;28;20212;-76
2024/04/08 02:02:53;;;;;;;2.97;2.10;;;15.60;99.90;;;;;;5069663;28;20196;-77
2024/04/08 02:05:19;;;;;;;4.00;1.63;;;15.60;99.90;;;;;;5050881;28;20228;-77
2024/04/08 02:07:45;;;;;;;3.73;2.00;;;15.60;99.90;;;;;;5050494;28;20590;-77
2024/04/08 02:10:11;;;;;;;5.20;1.80;;;15.60;99.90;;;;;;5056363;28;20586;-77
2024/04/08 02:12:37;;;;;;;4.20;2.50;;;15.60;99.90;;;;;;5065873;28;20626;-77
2024/04/08 02:15:04;;;;;;;6.43;2.60;;;15.50;99.90;;;;;;5054146;28;20590;-77
2024/04/08 02:17:29;;;;;;;7.43;2.73;;;15.50;99.90;;;;;;5054489;28;20582;-76
2024/04/08 02:19:56;;;;;;;3.33;2.30;;;15.50;99.90;;;;;;5037003;28;20640;-77
2024/04/08 02:22:22;;;;;;;3.53;1.70;;;15.50;99.90;;;;;;5037339;28;20606;-77
2024/04/08 02:24:48;;;;;;;4.90;2.60;;;15.50;99.90;;;;;;5070316;28;21202;-77
2024/04/08 02:27:13;;;;;;;4.53;2.67;;;15.40;99.90;;;;;;5070412;28;20668;-77
2024/04/08 02:29:39;;;;;;;6.10;2.10;;;15.40;99.90;;;;;;5071515;28;21136;-77
2024/04/08 02:32:05;;;;;;;8.10;2.30;;;15.40;99.90;;;;;;5053158;28;20195;-77
2024/04/08 02:34:31;;;;;;;4.50;2.07;;;15.30;99.90;;;;;;5070769;28;20181;-77
2024/04/08 02:36:57;;;;;;;3.23;2.10;;;15.30;99.90;;;;;;5071150;28;20619;-77
2024/04/08 02:39:22;;;;;;;3.73;2.37;;;15.30;99.90;;;;;;5068024;28;20192;-77
2024/04/08 02:41:48;;;;;;;5.00;2.23;;;15.30;99.90;;;;;;5070615;28;20176;-77
2024/04/08 02:44:14;;;;;;;5.30;3.20;;;15.20;99.90;;;;;;5071431;28;20654;-77
2024/04/08 02:46:40;;;;;;;4.80;2.30;;;15.20;99.90;;;;;;5055214;28;20168;-77
2024/04/08 02:49:06;;;;;;;4.57;2.43;;;15.20;99.90;;;;;;5069936;28;21136;-77
2024/04/08 02:51:32;;;;;;;3.70;2.70;;;15.20;99.90;;;;;;5052216;28;21184;-76
2024/04/08 02:53:58;;;;;;;5.53;3.00;;;15.10;99.90;;;;;;5070197;28;20622;-76
2024/04/08 02:56:24;;;;;;;4.80;2.70;;;15.10;99.90;;;;;;5054061;28;20183;-76
2024/04/08 02:58:49;;;;;;;3.43;2.90;;;15.10;99.90;;;;;;5070008;28;20631;-76
2024/04/08 03:01:15;;;;;;;5.63;2.73;;;15.00;99.90;;;;;;5070113;28;20180;-76
2024/04/08 03:03:41;;;;;;;4.13;2.30;;;15.00;99.90;;;;;;5047331;28;20207;-77
2024/04/08 03:06:12;;;;;;;6.40;3.73;;;15.00;99.90;;;;;;5069671;28;20195;-77
2024/04/08 03:08:42;;;;;;;6.47;3.10;;;14.90;99.90;;;;;;5071108;28;20601;-77
2024/04/08 03:11:09;;;;;;;8.73;3.13;;;14.90;99.90;;;;;;5068227;28;20591;-78
2024/04/08 03:13:36;;;;;;;4.63;3.30;;;14.90;99.90;;;;;;5070088;28;20638;-77
2024/04/08 03:16:02;;;;;;;8.47;3.90;;;14.90;99.90;;;;;;5071145;28;21148;-78
2024/04/08 03:19:46;;;;;;;6.57;3.30;;;14.90;99.90;;;;;;5473812;25;20658;-77
2024/04/08 03:22:12;;;;;;;6.00;3.17;;;14.80;99.90;;;;;;5468868;26;20246;-76
2024/04/08 03:24:38;;;;;;;5.03;3.20;;;14.80;99.90;;;;;;5469234;26;20225;-77
2024/04/08 03:27:05;;;;;;;5.37;3.30;;;14.80;99.90;;;;;;5433319;26;20543;-77
2024/04/08 03:29:31;;;;;;;6.27;3.30;;;14.80;99.90;;;;;;5456861;26;20594;-77
2024/04/08 03:31:58;;;;;;;5.67;4.03;;;14.80;99.90;;;;;;5456147;26;20572;-78
2024/04/08 03:34:24;;;;;;;7.38;4.43;;;14.80;99.90;;;;;;5457865;26;20873;-77
2024/04/08 03:36:50;;;;;;;6.10;3.57;;;14.70;99.90;;;;;;5417507;26;20317;-77
2024/04/08 03:39:16;;;;;;;7.23;3.93;;;14.70;99.90;;;;;;5447383;26;20592;-77
2024/04/08 03:41:42;;;;;;;5.93;4.20;;;14.70;99.90;;;;;;5470803;26;20591;-77
2024/04/08 03:44:08;;;;;;;5.20;3.85;;;14.70;99.90;;;;;;5470565;26;20575;-77
2024/04/08 03:46:34;;;;;;;5.30;4.33;;;14.70;99.90;;;;;;5471050;26;20815;-77
2024/04/08 03:49:02;;;;;;;5.43;4.47;;;14.60;99.90;;;;;;5469311;26;20626;-77
2024/04/08 03:51:28;;;;;;;7.83;4.17;;;14.60;99.90;;;;;;5470708;26;20542;-77
2024/04/08 03:53:55;;;;;;;5.50;4.60;;;14.60;99.90;;;;;;5473629;26;20706;-77
2024/04/08 03:56:22;;;;;;;4.93;4.43;;;14.60;99.90;;;;;;5430850;26;20560;-78
2024/04/08 03:58:48;;;;;;;7.20;4.60;;;14.60;99.90;;;;;;5415479;26;21146;-78
2024/04/08 04:01:14;;;;;;;7.40;4.78;;;14.50;99.90;;;;;;5451126;26;21172;-77
2024/04/08 04:03:40;;;;;;;7.07;4.37;;;14.50;99.90;;;;;;5467981;26;20337;-77
2024/04/08 04:06:07;;;;;;;5.95;4.80;;;14.50;99.90;;;;;;5419773;26;21125;-77
2024/04/08 04:08:33;;;;;;;9.57;5.82;;;14.50;99.90;;;;;;5448563;26;20221;-77
2024/04/08 04:10:59;;;;;;;8.93;5.32;;;14.50;99.90;;;;;;5457430;26;21024;-77
2024/04/08 04:13:25;;;;;;;8.35;5.47;;;14.50;99.90;;;;;;5465898;26;20280;-77
2024/04/08 04:15:51;;;;;;;6.22;4.50;;;14.40;99.90;;;;;;5466351;26;20554;-77
2024/04/08 04:18:17;;;;;;;11.10;5.35;;;14.40;99.90;;;;;;5464453;26;20241;-77
2024/04/08 04:20:47;;;;;;;10.63;5.78;;;14.40;99.90;;;;;;5459810;26;20258;-77
2024/04/08 04:23:16;;;;;;;7.10;5.65;;;14.40;99.90;;;;;;5456184;26;20238;-77
2024/04/08 04:25:42;;;;;;;8.65;6.05;;;14.40;99.90;;;;;;5453758;26;20238;-77
2024/04/08 04:28:08;;;;;;;8.45;5.88;;;14.40;99.90;;;;;;5465970;26;20760;-77
2024/04/08 04:30:35;;;;;;;7.72;5.50;;;14.40;99.90;;;;;;5455477;26;20272;-77
2024/04/08 04:33:02;;;;;;;8.20;5.80;;;14.50;99.90;;;;;;5410036;26;20242;-77
2024/04/08 04:35:29;;;;;;;10.37;5.93;;;14.50;99.90;;;;;;5443679;26;20277;-78
2024/04/08 04:37:56;;;;;;;8.93;6.30;;;14.60;99.90;;;;;;5384319;26;20552;-78
2024/04/08 04:40:24;;;;;;;10.50;7.00;;;14.60;99.90;;;;;;5411135;26;20572;-77
2024/04/08 04:42:50;;;;;;;7.33;5.90;;;14.70;99.90;;;;;;5419942;26;20635;-77
2024/04/08 04:45:17;;;;;;;7.70;6.10;;;14.70;99.90;;;;;;5419173;26;20609;-77
2024/04/08 04:47:43;;;;;;;7.03;4.97;;;14.70;99.90;;;;;;5404565;26;20624;-77
2024/04/08 04:50:09;;;;;;;7.90;6.00;;;14.70;99.90;;;;;;5417181;26;20603;-78
2024/04/08 04:52:36;;;;;;;7.45;5.80;;;14.80;99.90;;;;;;5450190;26;20559;-77
2024/04/08 04:55:02;;;;;;;6.97;5.30;;;14.80;99.90;;;;;;5419935;26;20221;-78
2024/04/08 04:57:28;;;;;;;8.77;5.57;;;14.80;99.90;;;;;;5413973;26;20613;-78
2024/04/08 04:59:54;;;;;;;9.73;6.00;;;14.80;99.90;;;;;;5442313;26;20563;-78
2024/04/08 05:02:22;;;;;;;7.40;6.20;;;14.80;99.90;;;;;;5404614;26;20639;-78
2024/04/08 05:04:48;;;;;;;7.00;5.37;;;14.80;99.90;;;;;;5452640;26;20528;-78
2024/04/08 05:07:14;;;;;;;8.87;6.33;;;14.80;99.90;;;;;;5412210;26;20658;-78
2024/04/08 05:09:40;;;;;;;7.30;5.43;;;14.70;99.90;;;;;;5438722;26;21242;-78
2024/04/08 05:12:07;;;;;;;8.37;5.70;;;14.70;99.90;;;;;;5430173;26;20579;-77
2024/04/08 05:14:33;;;;;;;7.67;5.23;;;14.70;99.90;;;;;;5406891;26;20943;-78
2024/04/08 05:17:00;;;;;;;6.07;5.23;;;14.70;99.90;;;;;;5435708;26;21065;-77
2024/04/08 05:19:27;;;;;;;9.77;6.47;;;14.70;99.90;;;;;;5404301;26;20576;-77
2024/04/08 05:21:53;;;;;;;9.90;6.60;;;14.70;99.90;;;;;;5443853;26;20569;-77
2024/04/08 05:24:19;;;;;;;10.93;8.27;;;14.70;99.90;;;;;;5448774;26;20547;-77
2024/04/08 05:26:45;;;;;;;7.80;6.90;;;14.70;99.90;;;;;;5449837;26;20769;-77
2024/04/08 05:29:12;;;;;;;6.87;5.60;;;14.70;99.90;;;;;;5450782;26;20602;-78
2024/04/08 05:31:38;;;;;;;8.37;6.63;;;14.60;99.90;;;;;;5443252;26;20597;-78
2024/04/08 05:34:04;;;;;;;10.20;7.70;;;14.70;99.90;;;;;;5442202;26;20616;-78
2024/04/08 05:36:30;;;;;;;9.02;7.07;;;14.70;99.90;;;;;;5451284;26;20532;-77
2024/04/08 05:38:56;;;;;;;12.40;7.93;;;14.70;99.90;;;;;;5446932;26;20229;-77
2024/04/08 05:41:24;;;;;;;8.57;7.00;;;14.80;99.90;;;;;;5410196;26;20703;-79
2024/04/08 05:43:50;;;;;;;8.77;6.93;;;14.80;99.90;;;;;;5386507;26;20707;-77
2024/04/08 05:46:18;;;;;;;7.10;6.10;;;14.90;99.90;;;;;;5429033;26;20586;-76
2024/04/08 05:48:44;;;;;;;9.47;7.80;;;14.90;99.90;;;;;;5444944;26;20540;-77
2024/04/08 05:51:10;;;;;;;13.30;7.90;;;15.00;99.90;;;;;;5394568;26;20549;-77
2024/04/08 05:53:37;;;;;;;7.80;6.80;;;15.00;99.90;;;;;;5430550;26;20688;-77
2024/04/08 05:56:03;;;;;;;12.02;7.90;;;15.10;99.90;;;;;;5403450;26;20619;-77
2024/04/08 05:58:29;;;;;;;12.43;8.20;;;15.20;99.90;;;;;;5423727;26;20677;-77
2024/04/08 06:00:55;;;;;;;9.53;8.00;;;15.20;99.90;;;;;;5450869;26;20568;-76
2024/04/08 06:03:22;;;;;;;9.53;8.23;;;15.30;99.90;;;;;;5447929;26;20630;-77
2024/04/08 06:05:48;;;;;;;10.50;9.30;;;15.30;99.90;;;;;;5447899;26;20588;-77
2024/04/08 06:08:15;;;;;;;9.57;7.00;;;15.40;99.90;;;;;;5415862;26;20653;-77
2024/04/08 06:10:50;;;;;;;10.67;6.90;;;15.50;99.90;;;;;;5418917;26;20551;-77
2024/04/08 06:13:17;;;;;;;8.07;7.10;;;15.60;99.90;;;;;;5418529;26;20639;-76
2024/04/08 06:15:43;;;;;;;11.47;7.17;;;15.70;99.90;;;;;;5417005;26;20608;-75
2024/04/08 06:18:09;;;;;;;8.90;7.13;;;15.70;99.90;;;;;;5446293;26;20603;-76
2024/04/08 06:20:35;;;;;;;7.77;6.97;;;15.80;99.90;;;;;;5448700;26;20516;-76
2024/04/08 06:23:02;;;;;;;12.77;7.80;;;15.90;99.90;;;;;;5417209;26;20631;-75
2024/04/08 06:25:29;;;;;;;12.30;7.40;;;16.00;99.90;;;;;;5427470;26;20544;-75
2024/04/08 06:27:55;;;;;;;14.53;8.67;;;16.10;99.90;;;;;;5425598;26;20610;-77
2024/04/08 06:30:21;;;;;;;11.77;7.83;;;16.20;99.90;;;;;;5397629;26;20946;-77
2024/04/08 06:32:49;;;;;;;10.67;7.73;;;16.30;99.90;;;;;;5422885;26;20575;-75
2024/04/08 06:35:16;;;;;;;8.87;7.03;;;16.50;99.90;;;;;;5448025;26;20559;-75
2024/04/08 06:37:43;;;;;;;11.07;7.20;;;16.70;99.90;;;;;;5431769;26;20642;-75
2024/04/08 06:40:10;;;;;;;10.10;6.93;;;16.80;99.90;;;;;;5420609;26;20913;-76
2024/04/08 06:42:37;;;;;;;11.47;6.60;;;17.00;99.90;;;;;;5428743;26;21252;-76
2024/04/08 06:45:03;;;;;;;11.20;6.50;;;17.30;99.90;;;;;;5424147;26;20601;-76
2024/04/08 06:47:29;;;;;;;7.93;6.10;;;17.80;99.90;;;;;;5435332;26;20564;-76
2024/04/08 06:49:56;;;;;;;9.20;7.27;;;18.40;99.90;;;;;;5423477;26;21113;-75
2024/04/08 06:52:22;;;;;;;7.17;5.63;;;19.10;99.90;;;;;;5435719;26;20912;-75
2024/04/08 06:54:49;;;;;;;6.70;5.23;;;19.70;99.90;;;;;;5420141;26;20584;-75
2024/04/08 06:57:15;;;;;;;7.57;5.23;;;20.40;99.90;;;;;;5420674;26;21005;-75
2024/04/08 06:59:41;;;;;;;8.60;6.43;;;21.10;99.90;;;;;;5423207;26;20654;-76
2024/04/08 07:02:07;;;;;;;6.80;5.77;;;21.70;99.90;;;;;;5420168;26;20662;-77
2024/04/08 07:04:34;;;;;;;6.60;3.80;;;22.30;99.90;;;;;;5436039;26;20520;-76
2024/04/08 07:07:00;;;;;;;5.80;3.73;;;22.90;99.90;;;;;;5407293;26;20559;-77
2024/04/08 07:09:29;;;;;;;8.53;4.30;;;23.20;99.90;;;;;;5417850;26;20987;-76
2024/04/08 07:11:59;;;;;;;6.00;4.67;;;23.30;99.90;;;;;;5411812;26;20568;-76
2024/04/08 07:14:25;;;;;;;6.70;4.37;;;23.20;99.90;;;;;;5415076;26;20628;-77
2024/04/08 07:16:52;;;;;;;7.90;4.33;;;23.20;99.90;;;;;;5350231;26;20608;-77
2024/04/08 07:19:18;;;;;;;7.47;4.07;;;23.20;99.90;;;;;;5371816;26;20683;-76
2024/04/08 07:21:44;;;;;;;5.40;4.20;;;23.10;99.90;;;;;;5397593;26;20568;-75
2024/04/08 07:24:11;;;;;;;7.03;4.20;;;23.10;99.90;;;;;;5417483;26;20672;-76
2024/04/08 07:26:37;;;;;;;6.60;3.50;;;23.20;99.90;;;;;;5431479;26;20529;-76
2024/04/08 07:29:03;;;;;;;7.73;4.70;;;23.40;99.90;;;;;;5433273;26;20648;-77
2024/04/08 07:31:29;;;;;;;6.67;3.67;;;23.70;99.90;;;;;;5433567;26;20927;-77
2024/04/08 07:33:56;;;;;;;6.40;3.40;;;23.80;99.90;;;;;;5399227;26;20664;-76
2024/04/08 07:36:22;;;;;;;5.03;3.23;;;24.20;99.90;;;;;;5441962;26;20645;-76
2024/04/08 07:38:48;;;;;;;5.83;3.43;;;24.70;99.90;;;;;;5424653;26;20572;-79
2024/04/08 07:41:14;;;;;;;5.97;3.37;;;25.10;99.90;;;;;;5438258;26;20587;-79
2024/04/08 07:43:41;;;;;;;5.60;2.90;;;25.20;99.90;;;;;;5415030;26;20617;-79
2024/04/08 07:46:07;;;;;;;4.67;3.67;;;25.10;99.90;;;;;;5430095;26;20658;-79
2024/04/08 07:48:33;;;;;;;4.10;2.53;;;25.20;99.90;;;;;;5419387;26;20545;-79
2024/04/08 07:50:59;;;;;;;5.30;2.93;;;25.50;99.90;;;;;;5438572;26;20584;-79
2024/04/08 07:53:26;;;;;;;5.60;3.27;;;25.70;99.90;;;;;;5436245;26;20576;-79
2024/04/08 07:55:53;;;;;;;6.07;2.90;;;26.20;99.90;;;;;;5377625;26;20562;-79
2024/04/08 07:58:19;;;;;;;3.40;2.60;;;26.70;99.90;;;;;;5443375;26;20621;-79
2024/04/08 08:00:59;;;;;;;4.17;2.60;;;26.90;99.90;;;;;;5438712;26;20590;-80
2024/04/08 08:03:28;;;;;;;6.03;3.10;;;27.20;99.90;;;;;;5446558;26;20615;-79
2024/04/08 08:05:58;;;;;;;5.23;2.60;;;27.50;99.90;;;;;;5407051;26;20555;-78
2024/04/08 08:08:27;;;;;;;3.37;2.57;;;27.70;99.90;;;;;;5432257;26;20614;-79
2024/04/08 08:10:57;;;;;;;5.53;2.90;;;27.80;99.90;;;;;;5432533;26;20525;-79
2024/04/08 08:13:23;;;;;;;3.80;2.97;;;28.00;99.90;;;;;;5449965;26;20967;-78
2024/04/08 08:15:57;;;;;;;7.10;3.40;;;28.20;99.90;;;;;;5442814;26;20926;-79
2024/04/08 08:18:23;;;;;;;4.80;4.03;;;28.30;99.90;;;;;;5425776;26;20583;-78
2024/04/08 08:20:53;;;;;;;4.23;3.40;;;28.10;99.90;;;;;;5428709;26;20561;-79
2024/04/08 08:23:20;;;;;;;4.93;4.13;;;27.80;99.90;;;;;;5439604;26;20619;-79
2024/04/08 08:25:48;;;;;;;5.20;4.10;;;27.60;99.90;;;;;;5427880;26;20528;-79
2024/04/08 08:28:14;;;;;;;5.53;4.50;;;27.60;99.90;;;;;;5456006;26;20627;-79
2024/04/08 08:30:41;;;;;;;4.80;3.50;;;27.70;99.90;;;;;;5444492;26;20924;-79
2024/04/08 08:33:07;;;;;;;4.80;4.30;;;28.00;99.90;;;;;;5431220;26;20665;-79
2024/04/08 08:35:33;;;;;;;6.00;4.50;;;28.30;99.90;;;;;;5424301;26;20553;-78
2024/04/08 08:38:00;;;;;;;12.60;5.07;;;28.50;99.90;;;;;;5425342;26;20580;-79
2024/04/08 08:40:27;;;;;;;4.83;4.10;;;28.50;99.90;;;;;;5442600;26;20540;-79
2024/04/08 08:42:56;;;;;;;5.57;4.07;;;28.40;99.90;;;;;;5439620;26;21144;-79
2024/04/08 08:45:22;;;;;;;4.93;4.43;;;28.50;99.90;;;;;;5440993;26;20555;-80
2024/04/08 08:47:49;;;;;;;6.30;4.70;;;28.40;99.90;;;;;;5432458;26;20553;-80
2024/04/08 08:50:15;;;;;;;5.53;4.13;;;28.40;99.90;;;;;;5424981;26;21148;-79
2024/04/08 08:52:42;;;;;;;6.47;4.77;;;28.40;99.90;;;;;;5430167;26;20634;-79
2024/04/08 08:55:10;;;;;;;5.73;4.60;;;28.20;99.90;;;;;;5431031;26;20609;-78
2024/04/08 08:57:36;;;;;;;6.70;4.70;;;28.20;99.90;;;;;;5436748;26;20645;-78
2024/04/08 09:00:08;;;;;;;6.80;5.33;;;28.20;99.90;;;;;;5446184;26;20536;-78
2024/04/08 09:02:36;;;;;;;5.77;4.77;;;28.50;99.90;;;;;;5451153;26;20620;-78
2024/04/08 09:05:02;;;;;;;5.33;4.40;;;28.80;99.90;;;;;;5440988;26;20548;-79
2024/04/08 09:07:28;;;;;;;5.50;4.77;;;29.00;99.90;;;;;;5436342;26;20626;-78
2024/04/08 09:09:58;;;;;;;5.30;4.80;;;29.10;99.90;;;;;;5429102;26;20535;-80
2024/04/08 09:12:25;;;;;;;5.67;4.23;;;29.40;99.90;;;;;;5450515;26;20568;-80
2024/04/08 09:14:52;;;;;;;5.77;4.60;;;29.90;99.90;;;;;;5451650;26;20596;-80
2024/04/08 09:17:19;;;;;;;5.73;5.03;;;30.40;99.90;;;;;;5435794;26;20523;-79
2024/04/08 09:19:45;;;;;;;6.77;4.40;;;30.50;99.90;;;;;;5451006;26;20601;-79
2024/04/08 09:22:12;;;;;;;6.20;5.07;;;30.50;99.90;;;;;;5443605;26;20618;-81
2024/04/08 09:24:38;;;;;;;7.50;5.83;;;30.50;99.90;;;;;;5445684;26;20578;-80
2024/04/08 09:27:04;;;;;;;7.57;4.93;;;30.60;99.90;;;;;;5399115;26;20650;-79
2024/04/08 09:29:30;;;;;;;9.93;6.60;;;30.70;99.90;;;;;;5433466;26;20879;-80
2024/04/08 09:31:58;;;;;;;5.77;5.03;;;30.80;99.90;;;;;;5452433;26;20588;-79
2024/04/08 09:34:24;;;;;;;7.33;5.60;;;30.60;99.90;;;;;;5446210;26;20552;-80
2024/04/08 09:36:52;;;;;;;8.70;4.20;;;30.40;99.90;;;;;;5445996;26;20544;-79
2024/04/08 09:39:20;;;;;;;6.50;4.80;;;30.30;99.90;;;;;;5449960;26;20595;-81
2024/04/08 09:41:48;;;;;;;7.67;5.33;;;30.40;99.90;;;;;;5434772;26;20538;-80
2024/04/08 09:44:17;;;;;;;6.37;4.97;;;30.10;99.90;;;;;;5428092;26;20646;-80
2024/04/08 09:46:45;;;;;;;5.73;4.60;;;29.60;98.70;;;;;;5428939;26;20537;-79
2024/04/08 09:49:11;;;;;;;7.60;4.87;;;29.40;99.90;;;;;;5410712;26;20944;-79
2024/04/08 09:51:42;;;;;;;5.70;4.63;;;29.30;99.90;;;;;;5450357;26;20532;-79
2024/04/08 09:54:09;;;;;;;5.67;5.10;;;29.40;99.90;;;;;;5450966;26;20567;-79
2024/04/08 09:56:39;;;;;;;6.50;4.57;;;29.40;99.90;;;;;;5448329;26;20555;-80
2024/04/08 09:59:08;;;;;;;5.20;4.20;;;29.70;99.90;;;;;;5428370;26;20585;-81
2024/04/08 10:01:38;;;;;;;7.50;5.00;;;29.80;99.90;;;;;;5447951;26;20589;-81
2024/04/08 10:04:15;;;;;;;7.00;4.80;;;29.80;99.40;;;;;;5442523;26;20561;-80
2024/04/08 10:06:46;;;;;;;6.23;3.87;;;29.60;98.50;;;;;;5431021;26;20525;-80
2024/04/08 10:09:13;;;;;;;4.60;4.20;;;29.40;98.80;;;;;;5445966;26;20540;-78
2024/04/08 10:11:44;;;;;;;4.70;3.40;;;29.30;99.00;;;;;;5449340;26;20573;-79
2024/04/08 10:14:20;;;;;;;7.93;5.50;;;29.30;99.90;;;;;;5412778;26;20569;-80
2024/04/08 10:16:52;;;;;;;6.63;4.70;;;29.40;98.00;;;;;;5446990;26;20548;-80
2024/04/08 10:19:22;;;;;;;5.97;3.43;;;29.50;97.80;;;;;;5450048;26;20539;-79
2024/04/08 10:21:52;;;;;;;5.03;3.60;;;29.50;99.20;;;;;;5437479;26;21099;-79
2024/04/08 10:24:32;;;;;;;7.87;4.50;;;29.50;97.70;;;;;;5448188;26;21299;-79
2024/04/08 10:27:07;;;;;;;5.70;3.50;;;29.60;97.40;;;;;;5449804;26;21363;-80
2024/04/08 10:29:37;;;;;;;7.13;3.00;;;29.40;97.20;;;;;;5447515;26;20552;-79
2024/04/08 10:32:06;;;;;;;6.70;4.23;;;29.40;98.50;;;;;;5415452;26;20556;-80
2024/04/08 10:34:35;;;;;;;5.90;2.93;;;29.60;98.50;;;;;;5452276;26;20607;-79
2024/04/08 10:37:02;;;;;;;6.17;3.07;;;29.80;98.40;;;;;;5427935;26;20531;-79
2024/04/08 10:39:28;;;;;;;5.90;3.83;;;29.90;99.10;;;;;;5383286;26;20561;-79
2024/04/08 10:41:58;;;;;;;9.40;4.00;;;29.90;97.60;;;;;;5404487;26;20634;-80
2024/04/08 10:44:26;;;;;;;6.23;3.33;;;29.90;97.50;;;;;;5452520;26;20528;-79
2024/04/08 10:46:53;;;;;;;4.23;2.77;;;30.00;97.90;;;;;;5372933;26;20592;-79
2024/04/08 10:49:21;;;;;;;5.63;3.90;;;29.90;96.70;;;;;;5446068;26;20939;-73
2024/04/08 10:51:49;;;;;;;10.43;3.70;;;29.60;95.90;;;;;;5418685;26;20555;-73
2024/04/08 10:54:15;;;;;;;6.47;3.70;;;29.10;94.20;;;;;;5423045;26;20581;-75
2024/04/08 10:56:42;;;;;;;5.80;2.57;;;28.50;93.30;;;;;;5438577;26;20633;-74
2024/04/08 10:59:08;;;;;;;5.10;3.10;;;27.90;93.40;;;;;;5449656;26;20944;-73
2024/04/08 11:01:35;;;;;;;6.23;3.37;;;27.30;93.90;;;;;;5446252;26;20599;-73
2024/04/08 11:04:01;;;;;;;5.23;3.87;;;26.80;94.30;;;;;;5436883;26;20654;-74
2024/04/08 11:06:28;;;;;;;5.60;3.40;;;26.30;94.40;;;;;;5439810;26;20595;-74
2024/04/08 11:08:54;;;;;;;6.20;3.23;;;26.00;95.60;;;;;;5441384;26;20659;-73
2024/04/08 11:11:24;;;;;;;7.70;4.30;;;25.80;96.40;;;;;;5443411;26;20938;-75
2024/04/08 11:13:51;;;;;;;4.70;3.77;;;25.70;97.00;;;;;;5412056;26;20621;-75
2024/04/08 11:16:17;;;;;;;6.90;3.30;;;25.50;96.90;;;;;;5433656;26;20557;-74
2024/04/08 11:18:47;;;;;;;7.93;3.97;;;25.30;97.70;;;;;;5440874;26;20561;-74
2024/04/08 11:21:13;;;;;;;6.30;3.03;;;25.20;97.90;;;;;;5410219;26;20539;-74
2024/04/08 11:23:43;;;;;;;6.03;4.70;;;25.20;98.90;;;;;;5449048;26;20669;-75
2024/04/08 11:26:11;;;;;;;7.60;3.43;;;25.20;99.10;;;;;;5447642;26;20596;-75
2024/04/08 11:28:37;;;;;;;6.50;3.77;;;25.10;99.50;;;;;;5445626;26;20659;-75
2024/04/08 11:31:06;;;;;;;5.50;4.13;;;25.10;99.60;;;;;;5411274;26;20604;-74
2024/04/08 11:33:32;;;;;;;6.67;3.70;;;25.10;99.60;;;;;;5441856;26;20650;-74
2024/04/08 11:35:59;;;;;;;5.07;3.40;;;25.20;99.90;;;;;;5447217;26;20539;-75
2024/04/08 11:38:25;;;;;;;5.50;3.47;;;25.50;99.90;;;;;;5428556;26;20548;-75
2024/04/08 11:40:52;;;;;;;7.10;3.53;;;25.80;99.90;;;;;;5451707;26;20591;-75
2024/04/08 11:43:18;;;;;;;5.90;3.63;;;26.00;99.90;;;;;;5442111;26;20595;-74
2024/04/08 11:45:44;;;;;;;6.30;3.70;;;26.10;99.90;;;;;;5428100;26;20628;-75
2024/04/08 11:48:11;;;;;;;4.83;2.70;;;26.20;99.90;;;;;;5442807;26;20524;-75
2024/04/08 11:50:37;;;;;;;5.93;2.87;;;26.30;99.90;;;;;;5449761;26;21103;-75
2024/04/08 11:53:03;;;;;;;4.30;2.60;;;26.50;99.90;;;;;;5444647;26;20659;-75
2024/04/08 11:55:29;;;;;;;5.10;3.23;;;26.80;99.90;;;;;;5448380;26;20530;-75
2024/04/08 11:57:55;;;;;;;4.90;2.67;;;27.10;99.90;;;;;;5452376;26;20584;-75
2024/04/08 12:00:22;;;;;;;4.60;2.50;;;27.10;99.90;;;;;;5466899;26;20586;-73
2024/04/08 12:02:48;;;;;;;5.73;3.10;;;27.10;99.60;;;;;;5444631;26;20643;-72
2024/04/08 12:05:16;;;;;;;13.10;4.27;;;27.10;99.70;;;;;;5439505;26;20693;-73
2024/04/08 12:07:43;;;;;;;17.43;5.20;;;27.10;99.50;;;;;;5451678;26;21061;-73
2024/04/08 12:10:10;;;;;;;7.23;2.97;;;27.20;99.90;;;;;;5459783;26;21326;-73
2024/04/08 12:12:37;;;;;;;8.37;2.43;;;27.40;99.90;;;;;;5448474;26;20640;-73
2024/04/08 12:15:05;;;;;;;10.80;3.23;;;27.40;99.60;;;;;;5448317;26;20576;-73
2024/04/08 12:17:31;;;;;;;7.83;2.70;;;27.40;98.40;;;;;;5448118;26;20621;-73
2024/04/08 12:19:57;;;;;;;4.90;2.20;;;27.30;98.20;;;;;;5449521;26;20602;-73
2024/04/08 12:22:23;;;;;;;5.73;2.30;;;27.20;97.30;;;;;;5444631;26;20577;-73
2024/04/08 12:24:49;;;;;;;5.47;2.60;;;27.00;97.30;;;;;;5438375;26;20609;-73
2024/04/08 12:27:16;;;;;;;4.63;2.40;;;26.90;97.40;;;;;;5414141;26;21153;-73
2024/04/08 12:29:42;;;;;;;3.43;2.27;;;26.90;97.80;;;;;;5441267;26;20535;-74
2024/04/08 12:32:09;;;;;;;9.00;3.27;;;26.80;98.20;;;;;;5434324;26;20584;-74
2024/04/08 12:34:35;;;;;;;3.67;1.87;;;26.90;98.90;;;;;;5448947;26;20926;-74
2024/04/08 12:37:01;;;;;;;5.73;3.07;;;26.90;98.90;;;;;;5429063;26;20550;-74
2024/04/08 12:39:27;;;;;;;6.67;3.30;;;27.00;99.90;;;;;;5449049;26;20598;-73
2024/04/08 12:41:53;;;;;;;3.63;1.87;;;27.30;99.90;;;;;;5437552;26;20619;-74
2024/04/08 12:44:20;;;;;;;4.43;2.20;;;27.60;99.90;;;;;;5451885;26;20516;-74